Terminal Aerodrome Forecast
Issued by NWS

Current Version | Previous Version | Text Only | Print | Product List | Glossary Off
Versions: 1 2 3 4 5 6 7 8 9 10 11 12 13 14 15 16 17 18 19 20

000
FTUS41 KILN 231500 AAC
TAFLUK
TAF AMD
KLUK 231554Z 2316/2412 15008KT P6SM BKN050
     FM231700 14010KT P6SM VCSH BKN035
     FM232000 14012G18KT 4SM -SHRA BR OVC020
      TEMPO 2321/2324 2SM SHRA OVC015
     FM240100 16012G20KT 5SM -SHRA BR OVC012
     FM240300 19014G22KT P6SM VCSH OVC006
     FM240800 20014G24KT P6SM VCSH BKN012=

USA.gov is the U.S. government's official web portal to all federal, state and local government web resources and services.